Time;durP1;ratioP1;P1;durP2;ratioP2;P2;SDS_P1;SDS_P2;PMS_P1;PMS_P2;Temp;Humidity;BMP_temperature;BMP_pressure;BME280_temperature;BME280_humidity;BME280_pressure;Samples;Min_cycle;Max_cycle;Signal;HPM_P1;HPM_P2
2022/03/22 00:01:41;;;;;;;9.80;3.90;;;;;;;5.91;54.73;102486.00;1771275;79;21030;-54
2022/03/22 00:04:10;;;;;;;8.93;4.22;;;;;;;5.86;54.72;102490.50;1767915;80;21035;-53
2022/03/22 00:06:37;;;;;;;9.03;5.05;;;;;;;5.82;55.11;102490.18;1710749;82;21076;-53
2022/03/22 00:09:04;;;;;;;13.18;4.70;;;;;;;5.79;55.20;102489.80;1774265;80;21105;-53
2022/03/22 00:11:33;;;;;;;7.55;4.17;;;;;;;5.75;55.23;102488.17;1764927;79;21406;-53
2022/03/22 00:14:01;;;;;;;10.82;4.72;;;;;;;5.71;55.37;102486.06;1764145;80;21066;-54
2022/03/22 00:19:08;;;;;;;8.70;3.98;;;;;;;5.66;55.53;102486.63;1860505;76;22707;-53
2022/03/22 00:21:35;;;;;;;9.58;4.20;;;;;;;5.65;55.63;102493.20;1842821;77;21077;-54
2022/03/22 00:24:03;;;;;;;10.30;4.70;;;;;;;5.63;55.57;102485.86;1833668;77;21234;-54
2022/03/22 00:26:31;;;;;;;10.25;4.75;;;;;;;5.58;55.18;102488.16;1840241;76;21010;-55
2022/03/22 00:28:59;;;;;;;12.40;4.30;;;;;;;5.53;55.84;102488.72;1843423;77;22299;-54
2022/03/22 00:31:31;;;;;;;8.38;3.42;;;;;;;5.52;55.89;102491.37;1828961;77;21030;-53
2022/03/22 00:33:58;;;;;;;8.75;4.65;;;;;;;5.49;55.97;102494.05;1831403;77;21058;-54
2022/03/22 00:36:26;;;;;;;8.50;4.08;;;;;;;5.48;55.82;102491.02;1833874;75;21150;-54
2022/03/22 00:41:29;;;;;;;8.95;4.55;;;;;;;5.44;55.97;102488.09;1851603;75;21961;-53
2022/03/22 00:43:57;;;;;;;8.75;3.72;;;;;;;5.41;56.22;102487.70;1802901;78;20951;-53
2022/03/22 00:46:25;;;;;;;7.92;3.92;;;;;;;5.41;56.32;102481.17;1806649;77;22129;-54
2022/03/22 00:48:53;;;;;;;11.15;4.78;;;;;;;5.49;56.40;102475.77;1824402;77;20935;-54
2022/03/22 00:51:23;;;;;;;11.68;4.60;;;;;;;5.56;56.36;102478.63;1824552;78;20927;-54
2022/03/22 00:53:51;;;;;;;11.97;4.25;;;;;;;5.57;56.27;102473.83;1825849;78;21042;-53
2022/03/22 00:56:19;;;;;;;10.72;3.80;;;;;;;5.57;56.28;102472.52;1818715;77;21109;-54
2022/03/22 00:58:46;;;;;;;12.45;4.35;;;;;;;5.55;56.33;102470.41;1808952;77;22140;-54
2022/03/22 01:01:14;;;;;;;9.15;4.40;;;;;;;5.52;56.27;102477.00;1813579;77;21085;-54
2022/03/22 01:03:41;;;;;;;9.68;4.97;;;;;;;5.46;56.41;102471.47;1821902;78;20998;-53
2022/03/22 01:06:08;;;;;;;8.90;4.65;;;;;;;5.40;56.52;102476.86;1821913;78;21618;-53
2022/03/22 01:08:37;;;;;;;13.05;5.20;;;;;;;5.34;56.65;102479.62;1804590;77;21485;-54
2022/03/22 01:11:05;;;;;;;12.65;5.03;;;;;;;5.27;56.83;102472.38;1816436;77;21462;-54
2022/03/22 01:13:32;;;;;;;12.55;4.78;;;;;;;5.18;56.88;102468.70;1812309;78;21042;-53
2022/03/22 01:16:00;;;;;;;15.35;5.33;;;;;;;5.09;57.03;102466.30;1823164;77;21010;-53
2022/03/22 01:18:28;;;;;;;16.52;6.33;;;;;;;5.00;57.34;102473.91;1805683;77;21506;-53
2022/03/22 01:20:56;;;;;;;13.45;5.65;;;;;;;4.93;57.56;102475.80;1808645;77;21054;-54
2022/03/22 01:23:26;;;;;;;10.78;5.95;;;;;;;4.88;57.64;102471.58;1811023;77;20971;-53
2022/03/22 01:25:53;;;;;;;12.88;6.00;;;;;;;4.82;58.04;102469.95;1809689;77;21724;-53
2022/03/22 01:28:21;;;;;;;13.65;5.37;;;;;;;4.86;57.95;102475.53;1818371;77;21026;-53
2022/03/22 01:30:49;;;;;;;11.30;6.05;;;;;;;4.91;57.72;102471.06;1804581;77;21041;-53
2022/03/22 01:33:17;;;;;;;16.65;5.75;;;;;;;4.95;57.87;102474.00;1796566;77;21022;-53
2022/03/22 01:35:44;;;;;;;10.48;5.08;;;;;;;4.99;57.89;102473.05;1807145;77;21213;-53
2022/03/22 01:38:11;;;;;;;9.40;5.33;;;;;;;5.01;57.75;102472.56;1810633;77;20979;-54
2022/03/22 01:40:39;;;;;;;12.33;5.90;;;;;;;5.02;57.58;102473.41;1827694;76;20967;-53
2022/03/22 01:43:06;;;;;;;12.95;5.58;;;;;;;4.98;57.49;102468.72;1817591;77;21057;-54
2022/03/22 01:45:34;;;;;;;15.08;5.97;;;;;;;4.94;57.72;102467.51;1825816;78;21015;-53
2022/03/22 01:48:04;;;;;;;11.50;5.58;;;;;;;4.88;57.91;102470.28;1824402;77;21228;-54
2022/03/22 01:50:31;;;;;;;14.07;6.03;;;;;;;4.80;58.11;102471.74;1821242;77;21047;-54
2022/03/22 01:52:59;;;;;;;14.55;5.17;;;;;;;4.71;58.16;102472.81;1828837;77;21510;-54
2022/03/22 01:55:26;;;;;;;13.18;4.83;;;;;;;4.63;58.41;102478.18;1828892;77;21089;-54
2022/03/22 01:57:54;;;;;;;10.70;5.35;;;;;;;4.56;58.64;102480.52;1825543;76;21026;-54
2022/03/22 02:00:22;;;;;;;10.95;5.03;;;;;;;4.49;58.77;102476.33;1830005;77;21126;-54
2022/03/22 02:05:54;;;;;;;11.63;5.28;;;;;;;4.42;59.17;102474.72;1826024;78;21071;-54
2022/03/22 02:08:28;;;;;;;10.32;4.87;;;;;;;4.49;59.19;102482.84;1793566;78;21046;-53
2022/03/22 02:11:01;;;;;;;12.33;5.83;;;;;;;4.52;59.12;102476.23;1782051;80;20987;-53
2022/03/22 02:13:30;;;;;;;15.58;4.80;;;;;;;4.51;59.44;102479.75;1784417;78;22394;-54
2022/03/22 02:15:59;;;;;;;11.33;5.15;;;;;;;4.51;59.30;102480.21;1778360;78;21089;-53
2022/03/22 02:18:28;;;;;;;9.85;5.17;;;;;;;4.49;59.10;102481.97;1782471;79;21003;-53
2022/03/22 02:20:56;;;;;;;13.40;6.15;;;;;;;4.41;59.60;102484.75;1775339;78;21549;-53
2022/03/22 02:23:50;;;;;;;10.28;4.65;;;;;;;4.34;60.10;102482.72;1778652;79;21094;-53
2022/03/22 02:26:20;;;;;;;10.45;5.28;;;;;;;4.29;60.15;102485.86;1777751;78;21218;-52
2022/03/22 02:28:53;;;;;;;9.90;5.85;;;;;;;4.21;60.03;102488.61;1776043;78;21140;-51
2022/03/22 02:31:18;;;;;;;11.83;5.33;;;;;;;4.14;60.32;102481.80;1780368;79;21062;-52
2022/03/22 02:33:47;;;;;;;11.97;5.15;;;;;;;4.13;60.56;102486.59;1782455;78;21060;-53
2022/03/22 02:36:14;;;;;;;11.85;5.05;;;;;;;4.17;60.47;102483.05;1781905;79;21058;-53
2022/03/22 02:38:41;;;;;;;11.95;5.30;;;;;;;4.21;60.50;102487.75;1781896;78;21949;-53
2022/03/22 02:41:16;;;;;;;15.45;6.12;;;;;;;4.20;60.77;102484.72;1787486;78;21113;-53
2022/03/22 02:43:46;;;;;;;12.90;6.37;;;;;;;4.22;60.89;102487.73;1738681;81;21064;-53
2022/03/22 02:46:14;;;;;;;11.33;5.50;;;;;;;4.23;60.91;102489.42;1783566;78;21186;-53
2022/03/22 02:48:42;;;;;;;12.50;6.05;;;;;;;4.19;60.74;102490.39;1767223;80;21060;-53
2022/03/22 02:51:11;;;;;;;10.93;4.53;;;;;;;4.11;60.93;102490.97;1789781;79;21995;-53
2022/03/22 02:53:39;;;;;;;12.75;5.33;;;;;;;4.05;61.12;102498.89;1794534;79;21528;-53
2022/03/22 02:56:06;;;;;;;13.78;5.78;;;;;;;4.00;61.23;102502.03;1786325;78;21069;-53
2022/03/22 02:58:33;;;;;;;9.85;6.00;;;;;;;3.99;61.48;102497.73;1793076;78;21517;-53
2022/03/22 03:01:02;;;;;;;11.73;5.65;;;;;;;4.05;61.48;102493.69;1792319;78;21052;-53
2022/03/22 03:03:33;;;;;;;11.50;5.85;;;;;;;4.11;61.34;102485.77;1793485;78;21131;-53
2022/03/22 03:06:00;;;;;;;11.95;5.78;;;;;;;4.12;61.35;102486.19;1794168;79;21053;-53
2022/03/22 03:08:29;;;;;;;21.10;6.35;;;;;;;4.13;61.29;102485.73;1763974;79;21053;-53
2022/03/22 03:10:56;;;;;;;12.50;6.62;;;;;;;4.09;61.32;102487.55;1795199;79;21706;-53
2022/03/22 03:13:24;;;;;;;13.65;7.00;;;;;;;4.05;61.44;102492.39;1791291;78;21032;-53
2022/03/22 03:15:53;;;;;;;12.68;6.62;;;;;;;4.00;61.31;102491.62;1793633;79;21044;-53
2022/03/22 03:18:20;;;;;;;12.40;5.95;;;;;;;3.94;61.38;102490.45;1784054;78;21480;-53
2022/03/22 03:20:49;;;;;;;13.93;6.95;;;;;;;3.89;61.60;102490.07;1787357;78;21013;-53
2022/03/22 03:23:17;;;;;;;16.27;6.97;;;;;;;3.88;61.63;102496.19;1779083;80;21007;-54
2022/03/22 03:25:44;;;;;;;15.38;6.25;;;;;;;3.93;61.58;102497.38;1776799;80;21069;-53
2022/03/22 03:28:13;;;;;;;12.85;6.33;;;;;;;3.97;61.61;102500.78;1755050;79;21093;-53
2022/03/22 03:30:41;;;;;;;15.05;7.20;;;;;;;4.02;61.73;102502.89;1769166;80;21495;-53
2022/03/22 03:33:08;;;;;;;15.65;6.75;;;;;;;4.05;61.67;102504.11;1764176;80;21047;-53
2022/03/22 03:35:36;;;;;;;20.52;6.70;;;;;;;4.07;61.65;102512.33;1770949;80;21082;-53
2022/03/22 03:38:04;;;;;;;13.98;7.85;;;;;;;4.04;61.53;102514.14;1765069;79;21129;-53
2022/03/22 03:43:17;;;;;;;14.93;6.70;;;;;;;3.98;61.55;102522.05;1771615;80;22194;-54
2022/03/22 03:48:31;;;;;;;11.18;5.67;;;;;;;3.83;61.08;102527.97;1787346;79;21066;-54
2022/03/22 03:50:59;;;;;;;12.65;5.95;;;;;;;3.71;60.72;102531.61;1763783;80;21065;-54
2022/03/22 03:53:27;;;;;;;13.68;7.10;;;;;;;3.57;60.63;102532.75;1788450;79;21970;-53
2022/03/22 03:55:54;;;;;;;11.57;5.87;;;;;;;3.46;60.62;102537.69;1791061;78;21044;-54
2022/03/22 03:58:21;;;;;;;13.03;6.55;;;;;;;3.36;60.78;102537.38;1795004;78;21057;-53
2022/03/22 04:00:48;;;;;;;12.93;6.62;;;;;;;3.28;60.69;102537.97;1790340;80;21037;-53
2022/03/22 04:03:15;;;;;;;13.25;6.25;;;;;;;3.21;60.85;102529.81;1789901;78;21540;-54
2022/03/22 04:05:44;;;;;;;15.63;6.47;;;;;;;3.18;61.24;102536.36;1796728;78;21695;-53
2022/03/22 04:08:11;;;;;;;11.80;6.50;;;;;;;3.19;61.28;102538.94;1798306;78;21089;-53
2022/03/22 04:10:38;;;;;;;12.20;6.05;;;;;;;3.19;62.32;102535.48;1794385;78;21488;-56
2022/03/22 04:13:06;;;;;;;9.38;5.22;;;;;;;3.23;62.95;102543.66;1796119;78;20986;-53
2022/03/22 04:15:35;;;;;;;11.95;5.47;;;;;;;3.29;63.14;102548.78;1793589;78;21104;-53
2022/03/22 04:18:02;;;;;;;10.13;5.28;;;;;;;3.36;63.21;102539.98;1786517;78;21619;-53
2022/03/22 04:20:30;;;;;;;13.88;5.67;;;;;;;3.49;63.09;102540.67;1793818;80;21056;-53
2022/03/22 04:22:57;;;;;;;16.23;5.78;;;;;;;3.61;63.05;102552.63;1789967;78;21081;-54
2022/03/22 04:25:26;;;;;;;12.55;5.67;;;;;;;3.63;62.91;102552.16;1785362;78;21076;-53
2022/03/22 04:33:25;;;;;;;12.40;4.95;;;;;;;3.63;62.87;102552.16;1770960;78;21040;-53
2022/03/22 04:35:53;;;;;;;13.32;5.92;;;;;;;3.63;62.86;102557.36;1792178;80;21084;-53
2022/03/22 04:38:21;;;;;;;11.97;5.33;;;;;;;3.60;63.00;102562.19;1783699;78;21102;-53
2022/03/22 04:40:48;;;;;;;12.03;5.47;;;;;;;3.60;62.98;102565.22;1787893;79;21159;-53
2022/03/22 04:43:16;;;;;;;16.73;5.50;;;;;;;3.59;63.01;102566.97;1764292;79;21188;-53
2022/03/22 04:45:43;;;;;;;11.33;4.97;;;;;;;3.61;63.00;102568.25;1771417;80;21523;-53
2022/03/22 04:48:10;;;;;;;14.68;5.65;;;;;;;3.64;62.97;102574.27;1770490;79;20982;-53
2022/03/22 04:50:39;;;;;;;13.10;6.05;;;;;;;3.72;62.85;102568.49;1764828;80;21047;-53
2022/03/22 04:58:39;;;;;;;13.08;6.20;;;;;;;3.96;62.56;102579.84;1746017;81;20987;-53
2022/03/22 05:01:06;;;;;;;13.38;6.25;;;;;;;3.99;62.49;102576.73;1757683;80;21038;-53
2022/03/22 05:03:33;;;;;;;12.78;5.70;;;;;;;4.03;62.33;102573.63;1751069;80;21093;-53
2022/03/22 05:08:47;;;;;;;14.23;5.85;;;;;;;4.05;62.20;102583.15;1748947;81;21859;-53
2022/03/22 05:11:16;;;;;;;11.35;5.55;;;;;;;4.06;62.16;102586.15;1766665;80;20987;-53
2022/03/22 05:13:43;;;;;;;14.60;6.67;;;;;;;4.07;62.19;102587.88;1737934;80;21173;-53
2022/03/22 05:16:10;;;;;;;12.58;5.20;;;;;;;4.08;62.21;102578.31;1733498;82;21009;-53
2022/03/22 05:18:38;;;;;;;13.90;5.97;;;;;;;4.14;62.16;102586.48;1733746;80;21073;-54
2022/03/22 05:21:06;;;;;;;11.75;5.78;;;;;;;4.26;61.93;102586.25;1731608;80;22109;-54
2022/03/22 05:23:35;;;;;;;12.40;5.87;;;;;;;4.35;61.76;102593.03;1740225;80;21525;-54
2022/03/22 05:26:06;;;;;;;13.38;5.83;;;;;;;4.40;61.60;102592.50;1735704;80;21537;-53
2022/03/22 05:28:34;;;;;;;16.82;6.83;;;;;;;4.42;61.49;102586.81;1725880;82;21065;-53
2022/03/22 05:31:01;;;;;;;14.15;6.28;;;;;;;4.48;61.29;102591.92;1734247;80;21026;-53
2022/03/22 05:33:28;;;;;;;10.85;5.37;;;;;;;4.53;61.23;102593.14;1737505;82;21079;-53
2022/03/22 05:35:56;;;;;;;11.60;6.12;;;;;;;4.56;61.10;102599.16;1725620;82;21066;-54
2022/03/22 05:38:26;;;;;;;11.25;5.30;;;;;;;4.59;60.97;102600.41;1733087;82;21058;-53
2022/03/22 05:40:54;;;;;;;10.28;5.55;;;;;;;4.63;60.85;102605.11;1728310;81;21055;-53
2022/03/22 05:43:21;;;;;;;14.87;6.97;;;;;;;4.68;60.72;102606.33;1764370;80;22304;-53
2022/03/22 05:45:48;;;;;;;12.47;5.75;;;;;;;4.69;60.58;102606.30;1747950;80;21246;-52
2022/03/22 05:48:17;;;;;;;10.28;5.55;;;;;;;4.72;60.42;102607.52;1765573;80;21060;-53
2022/03/22 05:50:45;;;;;;;11.90;5.95;;;;;;;4.82;60.28;102605.59;1760988;79;21604;-53
2022/03/22 05:53:13;;;;;;;12.88;6.37;;;;;;;4.90;60.22;102611.52;1766575;79;21102;-53
2022/03/22 05:55:41;;;;;;;12.85;5.28;;;;;;;4.98;59.89;102615.28;1765068;79;21112;-53
2022/03/22 05:58:08;;;;;;;11.22;5.47;;;;;;;5.02;59.60;102613.86;1767549;79;21888;-53
2022/03/22 06:00:36;;;;;;;12.05;5.42;;;;;;;5.08;59.43;102614.62;1766874;80;21007;-53
2022/03/22 06:03:03;;;;;;;12.68;5.28;;;;;;;5.13;59.27;102618.02;1765297;79;21013;-54
2022/03/22 06:05:31;;;;;;;12.07;5.50;;;;;;;5.14;59.04;102621.02;1751555;80;21106;-53
2022/03/22 06:07:59;;;;;;;11.43;5.33;;;;;;;5.17;59.07;102629.64;1761222;79;21106;-53
2022/03/22 06:10:29;;;;;;;16.73;5.78;;;;;;;5.19;58.86;102629.61;1772110;80;21127;-53
2022/03/22 06:12:57;;;;;;;13.20;5.83;;;;;;;5.18;58.78;102624.84;1762067;80;21069;-54
2022/03/22 06:15:29;;;;;;;12.28;5.50;;;;;;;5.20;58.50;102628.27;1763799;81;21033;-53
2022/03/22 06:18:03;;;;;;;14.10;6.08;;;;;;;5.24;58.50;102632.98;1753538;80;21045;-53
2022/03/22 06:20:34;;;;;;;12.68;5.05;;;;;;;5.26;58.24;102636.87;1767152;79;21396;-54
2022/03/22 06:23:04;;;;;;;11.10;5.72;;;;;;;5.29;58.11;102642.88;1765962;80;21239;-53
2022/03/22 06:25:31;;;;;;;13.25;5.17;;;;;;;5.34;58.13;102637.10;1765449;80;21529;-52
2022/03/22 06:28:00;;;;;;;11.90;5.22;;;;;;;5.50;58.01;102644.63;1760777;80;21490;-52
2022/03/22 06:30:27;;;;;;;15.13;6.33;;;;;;;5.64;57.56;102645.61;1764941;80;21548;-53
2022/03/22 06:32:58;;;;;;;11.90;5.90;;;;;;;5.72;57.37;102650.21;1756061;79;21118;-53
2022/03/22 06:35:29;;;;;;;11.08;6.40;;;;;;;5.77;57.00;102650.96;1766715;80;21223;-52
2022/03/22 06:37:56;;;;;;;12.07;6.12;;;;;;;5.84;56.86;102653.83;1756619;80;21122;-52
2022/03/22 06:40:27;;;;;;;14.65;5.75;;;;;;;5.92;56.69;102653.20;1766682;79;21400;-52
2022/03/22 06:42:53;;;;;;;14.80;6.83;;;;;;;6.00;56.36;102657.41;1769339;80;21057;-53
2022/03/22 06:45:20;;;;;;;11.05;6.33;;;;;;;6.05;56.06;102654.23;1768023;80;21059;-53
2022/03/22 06:47:49;;;;;;;13.30;6.33;;;;;;;6.09;56.01;102659.81;1790850;78;21081;-53
2022/03/22 06:50:17;;;;;;;11.80;6.53;;;;;;;6.16;55.97;102656.14;1781203;80;21131;-54
2022/03/22 06:52:45;;;;;;;12.58;6.17;;;;;;;6.24;55.67;102658.11;1788037;78;21582;-52
2022/03/22 06:55:13;;;;;;;15.38;6.65;;;;;;;6.31;55.46;102660.97;1789676;79;21089;-53
2022/03/22 06:57:40;;;;;;;13.83;6.45;;;;;;;6.38;55.04;102664.29;1759069;80;21584;-55
2022/03/22 07:00:15;;;;;;;12.55;6.00;;;;;;;6.45;54.88;102664.53;1771519;80;21236;-53
2022/03/22 07:02:42;;;;;;;15.30;6.72;;;;;;;6.55;54.64;102666.92;1772717;79;21120;-53
2022/03/22 07:05:11;;;;;;;12.10;6.30;;;;;;;6.58;54.42;102658.99;1763514;78;21552;-53
2022/03/22 07:07:39;;;;;;;14.50;6.12;;;;;;;6.64;54.22;102661.42;1779613;79;21128;-53
2022/03/22 07:10:09;;;;;;;12.45;5.47;;;;;;;6.70;53.84;102655.58;1792135;78;21124;-53
2022/03/22 07:12:59;;;;;;;12.55;6.00;;;;;;;6.76;53.71;102661.11;1784982;79;21582;-54
2022/03/22 07:15:32;;;;;;;13.55;6.42;;;;;;;6.82;53.52;102660.07;1761272;80;21580;-52
2022/03/22 07:18:00;;;;;;;12.13;6.72;;;;;;;6.90;53.53;102661.18;1771462;80;21101;-53
2022/03/22 07:20:28;;;;;;;13.72;5.80;;;;;;;6.98;53.47;102661.83;1771808;79;21054;-53
2022/03/22 07:22:55;;;;;;;14.68;6.97;;;;;;;7.08;53.07;102660.66;1776777;78;21099;-53
2022/03/22 07:25:22;;;;;;;12.82;6.65;;;;;;;7.16;52.97;102662.60;1752693;80;21137;-53
2022/03/22 07:27:50;;;;;;;12.23;6.55;;;;;;;7.23;52.65;102661.51;1759082;80;21074;-54
2022/03/22 07:30:18;;;;;;;13.03;6.25;;;;;;;7.29;52.43;102659.16;1773825;79;21099;-53
2022/03/22 07:32:46;;;;;;;12.13;5.85;;;;;;;7.35;52.15;102657.67;1768104;80;21596;-52
2022/03/22 07:35:14;;;;;;;13.62;6.85;;;;;;;7.42;52.07;102654.41;1788099;78;21139;-53
2022/03/22 07:37:42;;;;;;;10.80;6.25;;;;;;;7.49;51.89;102655.93;1774063;79;21118;-53
2022/03/22 07:40:11;;;;;;;12.23;6.05;;;;;;;7.56;51.45;102660.06;1782163;79;21054;-53
2022/03/22 07:42:39;;;;;;;12.82;6.17;;;;;;;7.62;51.43;102657.73;1797904;79;21042;-53
2022/03/22 07:45:09;;;;;;;12.25;5.70;;;;;;;7.70;51.36;102660.97;1758321;80;21027;-53
2022/03/22 07:47:37;;;;;;;15.38;6.22;;;;;;;7.80;51.06;102652.34;1762963;80;21105;-55
2022/03/22 07:53:00;;;;;;;13.48;6.75;;;;;;;7.98;50.45;102660.07;1775910;80;21015;-53
2022/03/22 07:55:30;;;;;;;13.30;6.95;;;;;;;8.05;50.28;102657.64;1775311;80;21053;-53
2022/03/22 07:57:57;;;;;;;11.90;6.22;;;;;;;8.12;50.18;102659.17;1770966;80;21030;-53
2022/03/22 08:00:26;;;;;;;12.60;5.35;;;;;;;8.21;50.02;102654.53;1769666;80;21090;-53
2022/03/22 08:02:56;;;;;;;12.00;5.65;;;;;;;8.30;49.61;102656.83;1770595;80;21555;-53
2022/03/22 08:05:23;;;;;;;14.33;6.53;;;;;;;8.40;49.52;102662.62;1774019;80;21037;-53
2022/03/22 08:07:53;;;;;;;13.03;5.80;;;;;;;8.51;49.25;102663.16;1775727;80;21069;-53
2022/03/22 08:10:22;;;;;;;10.88;6.40;;;;;;;8.59;48.86;102666.37;1766874;79;21076;-53
2022/03/22 08:12:49;;;;;;;10.88;5.58;;;;;;;8.66;48.78;102659.14;1771458;80;21040;-53
2022/03/22 08:15:17;;;;;;;11.68;5.37;;;;;;;8.72;48.42;102659.77;1777176;80;21132;-53
2022/03/22 08:17:45;;;;;;;10.82;5.92;;;;;;;8.79;47.97;102656.44;1773357;79;21124;-53
2022/03/22 08:20:12;;;;;;;12.25;6.15;;;;;;;8.85;47.97;102658.85;1779316;80;21102;-53
2022/03/22 08:22:52;;;;;;;9.78;5.20;;;;;;;8.92;47.87;102652.45;1772656;80;21055;-53
2022/03/22 08:25:26;;;;;;;11.53;5.12;;;;;;;9.03;47.40;102656.02;1776016;80;21035;-53
2022/03/22 08:27:54;;;;;;;12.53;5.97;;;;;;;9.13;47.08;102653.03;1770115;80;21317;-53
2022/03/22 08:30:21;;;;;;;9.83;4.70;;;;;;;9.26;47.12;102655.59;1775654;80;21598;-54
2022/03/22 08:32:52;;;;;;;9.90;5.10;;;;;;;9.36;46.82;102660.89;1772823;80;21039;-53
2022/03/22 08:35:21;;;;;;;10.82;5.70;;;;;;;9.48;46.11;102655.62;1775491;80;21089;-53
2022/03/22 08:37:48;;;;;;;12.13;5.35;;;;;;;9.56;45.57;102651.38;1775411;79;21062;-53
2022/03/22 08:40:15;;;;;;;8.40;4.15;;;;;;;9.59;45.03;102652.58;1774111;80;21207;-53
2022/03/22 08:42:44;;;;;;;12.35;4.55;;;;;;;9.62;45.10;102657.72;1769663;79;21038;-53
2022/03/22 08:45:21;;;;;;;13.18;4.58;;;;;;;9.70;45.06;102658.72;1778942;80;21077;-53
2022/03/22 08:47:49;;;;;;;13.85;5.58;;;;;;;9.80;44.60;102658.73;1773755;80;21529;-52
2022/03/22 08:50:19;;;;;;;9.15;5.12;;;;;;;9.86;43.80;102651.45;1769895;80;21482;-53
2022/03/22 08:52:48;;;;;;;10.60;4.80;;;;;;;9.88;43.65;102654.03;1760211;80;21818;-52
2022/03/22 08:55:17;;;;;;;9.00;4.42;;;;;;;9.91;43.35;102648.64;1769842;80;21118;-53
2022/03/22 08:57:48;;;;;;;7.42;4.10;;;;;;;9.97;43.37;102647.53;1764341;79;21018;-53
2022/03/22 09:00:17;;;;;;;8.23;3.85;;;;;;;10.04;42.98;102647.22;1753402;80;21007;-53
2022/03/22 09:02:48;;;;;;;12.78;4.17;;;;;;;10.11;42.61;102650.45;1774537;80;21627;-53
2022/03/22 09:08:05;;;;;;;12.00;4.60;;;;;;;10.27;42.45;102636.20;1775573;80;21530;-53
2022/03/22 09:10:33;;;;;;;13.58;5.35;;;;;;;10.36;42.42;102642.41;1773031;79;21058;-53
2022/03/22 09:13:01;;;;;;;11.45;3.75;;;;;;;10.46;42.20;102638.92;1767388;80;21526;-53
2022/03/22 09:17:58;;;;;;;11.18;5.50;;;;;;;10.68;41.82;102633.56;1861136;76;22585;-54
2022/03/22 09:20:26;;;;;;;9.08;4.65;;;;;;;10.73;41.50;102632.05;1840063;77;22249;-54
2022/03/22 09:22:54;;;;;;;8.98;4.62;;;;;;;10.82;41.11;102632.94;1832120;77;21619;-54
2022/03/22 09:25:22;;;;;;;9.55;4.83;;;;;;;10.89;40.99;102623.86;1832896;76;21046;-53
2022/03/22 09:27:51;;;;;;;9.65;4.35;;;;;;;10.96;40.35;102622.64;1837503;77;20942;-54
2022/03/22 09:30:18;;;;;;;8.83;3.98;;;;;;;11.02;40.05;102622.81;1832589;77;21426;-54
2022/03/22 09:32:46;;;;;;;11.83;5.03;;;;;;;11.08;39.97;102626.96;1816412;78;21057;-54
2022/03/22 09:35:17;;;;;;;8.13;4.30;;;;;;;11.17;39.75;102623.03;1808710;78;21295;-53
2022/03/22 09:37:46;;;;;;;8.80;4.58;;;;;;;11.22;39.00;102621.88;1795979;78;21573;-54
2022/03/22 09:40:15;;;;;;;9.98;4.45;;;;;;;11.26;39.15;102615.56;1805318;78;21077;-54
2022/03/22 09:42:45;;;;;;;10.18;4.33;;;;;;;11.31;38.21;102611.36;1785072;79;21038;-54
2022/03/22 09:45:15;;;;;;;13.03;4.10;;;;;;;11.38;38.45;102611.92;1775487;80;21098;-54
2022/03/22 09:47:44;;;;;;;9.53;3.85;;;;;;;11.44;38.57;102615.59;1774941;79;21827;-53
2022/03/22 09:50:12;;;;;;;9.60;3.70;;;;;;;11.56;39.04;102608.40;1773457;79;21023;-53
2022/03/22 09:52:40;;;;;;;14.75;4.90;;;;;;;11.73;38.71;102606.73;1770666;80;21038;-54
2022/03/22 09:55:11;;;;;;;9.95;4.40;;;;;;;11.89;37.89;102599.77;1772952;79;21034;-54
2022/03/22 09:57:38;;;;;;;8.35;4.33;;;;;;;12.00;36.90;102597.48;1777582;80;20995;-53
2022/03/22 10:00:11;;;;;;;9.20;4.42;;;;;;;12.04;37.07;102593.73;1772934;79;21165;-53
2022/03/22 10:02:40;;;;;;;12.23;4.80;;;;;;;12.14;36.84;102594.56;1774894;79;21089;-53
2022/03/22 10:05:22;;;;;;;9.73;4.42;;;;;;;12.21;36.58;102599.47;1770014;79;21021;-53
2022/03/22 10:07:58;;;;;;;8.35;4.33;;;;;;;12.26;36.65;102593.95;1761131;80;21467;-55
2022/03/22 10:10:27;;;;;;;10.40;5.00;;;;;;;12.34;36.66;102591.77;1776124;79;21070;-54
2022/03/22 10:13:01;;;;;;;9.88;4.80;;;;;;;12.43;36.74;102589.11;1780665;80;21643;-54
2022/03/22 10:15:35;;;;;;;8.70;3.85;;;;;;;12.54;36.41;102580.61;1774463;80;20983;-54
2022/03/22 10:18:07;;;;;;;10.93;5.00;;;;;;;12.63;36.18;102581.45;1774798;80;21070;-53
2022/03/22 10:20:40;;;;;;;11.35;5.25;;;;;;;12.70;35.96;102572.25;1769529;80;21114;-54
2022/03/22 10:23:10;;;;;;;11.10;5.25;;;;;;;12.74;35.99;102571.17;1768568;79;21117;-54
2022/03/22 10:25:39;;;;;;;10.78;4.67;;;;;;;12.80;36.37;102572.61;1777173;79;21091;-54
2022/03/22 10:28:07;;;;;;;8.63;4.67;;;;;;;12.90;36.45;102564.56;1780410;79;21007;-54
2022/03/22 10:30:36;;;;;;;14.38;5.10;;;;;;;13.04;35.81;102564.27;1789304;78;21030;-54
2022/03/22 10:33:03;;;;;;;11.95;4.22;;;;;;;13.13;35.22;102566.38;1787785;79;21118;-54
2022/03/22 10:35:35;;;;;;;10.50;4.80;;;;;;;13.15;35.39;102560.08;1769019;79;21068;-54
2022/03/22 10:38:08;;;;;;;13.65;5.37;;;;;;;13.23;35.37;102555.70;1771322;79;21217;-54
2022/03/22 10:40:41;;;;;;;9.00;4.78;;;;;;;13.29;34.98;102549.20;1766262;80;21554;-53
2022/03/22 10:43:13;;;;;;;10.50;4.85;;;;;;;13.32;35.05;102545.94;1789676;78;21086;-54
2022/03/22 10:46:05;;;;;;;11.68;5.17;;;;;;;13.40;35.39;102540.22;1795425;77;21101;-53
2022/03/22 10:48:32;;;;;;;11.57;5.15;;;;;;;13.51;35.01;102541.75;1778203;78;21142;-53
2022/03/22 10:51:01;;;;;;;11.85;4.78;;;;;;;13.61;34.62;102532.81;1777091;79;21085;-53
2022/03/22 10:53:31;;;;;;;11.15;4.65;;;;;;;13.69;34.75;102536.34;1806160;78;21026;-54
2022/03/22 10:55:59;;;;;;;13.13;5.17;;;;;;;13.75;34.05;102530.67;1804225;77;21061;-54
2022/03/22 10:58:27;;;;;;;9.70;4.95;;;;;;;13.80;34.07;102533.05;1798143;78;21117;-53
2022/03/22 11:00:57;;;;;;;12.53;3.87;;;;;;;13.88;35.18;102519.73;1794287;78;21062;-54
2022/03/22 11:03:25;;;;;;;8.53;4.58;;;;;;;14.04;33.88;102515.70;1799226;78;21173;-53
2022/03/22 11:05:55;;;;;;;10.70;4.70;;;;;;;14.16;33.90;102518.08;1780080;78;20975;-54
2022/03/22 11:08:28;;;;;;;11.93;4.70;;;;;;;14.27;33.43;102518.27;1803232;78;21730;-53
2022/03/22 11:10:56;;;;;;;8.25;4.08;;;;;;;14.41;33.27;102516.56;1805611;78;21167;-53
2022/03/22 11:13:25;;;;;;;8.20;4.17;;;;;;;14.58;32.68;102514.18;1806391;78;21105;-53
2022/03/22 11:15:54;;;;;;;15.08;4.35;;;;;;;14.65;31.89;102511.55;1760615;80;21156;-53
2022/03/22 11:18:23;;;;;;;10.13;4.45;;;;;;;14.68;31.31;102510.88;1742333;80;21082;-53
2022/03/22 11:20:56;;;;;;;8.53;3.83;;;;;;;14.70;31.50;102499.34;1790883;78;20995;-54
2022/03/22 11:23:28;;;;;;;7.00;3.02;;;;;;;14.78;31.12;102499.70;1803706;77;21010;-53
2022/03/22 11:25:57;;;;;;;9.23;3.15;;;;;;;14.84;29.47;102495.30;1787397;78;21040;-54
2022/03/22 11:28:24;;;;;;;6.92;2.42;;;;;;;14.89;29.33;102504.30;1773401;79;21266;-54
2022/03/22 11:30:52;;;;;;;5.80;2.22;;;;;;;14.91;28.15;102492.66;1771759;80;21004;-53
2022/03/22 11:36:15;;;;;;;6.28;1.87;;;;;;;15.02;27.29;102482.19;1734286;80;21593;-54
2022/03/22 11:38:54;;;;;;;7.08;2.35;;;;;;;15.12;27.34;102484.24;1776439;80;21010;-54
2022/03/22 11:44:38;;;;;;;5.25;2.05;;;;;;;15.36;28.25;102479.94;1775933;79;21019;-53
2022/03/22 11:47:15;;;;;;;5.95;2.50;;;;;;;15.53;27.87;102471.33;1771471;80;21011;-54
2022/03/22 11:49:56;;;;;;;5.75;2.58;;;;;;;15.65;27.22;102472.30;1794330;78;21043;-54
2022/03/22 11:52:45;;;;;;;4.97;2.33;;;;;;;15.75;26.52;102466.30;1794679;78;21042;-54
2022/03/22 11:55:19;;;;;;;5.90;2.25;;;;;;;15.88;26.79;102464.11;1787469;79;21757;-53
2022/03/22 11:57:49;;;;;;;6.70;2.77;;;;;;;16.03;26.55;102460.86;1774136;79;20983;-52
2022/03/22 12:00:23;;;;;;;6.40;2.10;;;;;;;16.10;26.17;102464.29;1786877;79;21058;-54
2022/03/22 12:02:54;;;;;;;11.83;2.75;;;;;;;16.18;26.03;102460.27;1796262;78;21087;-53
2022/03/22 12:05:25;;;;;;;6.12;2.35;;;;;;;16.28;25.87;102461.31;1795701;78;21112;-53
2022/03/22 12:07:52;;;;;;;6.55;2.77;;;;;;;16.41;25.43;102448.84;1795270;78;21086;-54
2022/03/22 12:10:21;;;;;;;7.15;2.87;;;;;;;16.43;25.62;102449.58;1770003;78;21023;-54
2022/03/22 12:12:50;;;;;;;7.50;3.02;;;;;;;16.50;25.16;102448.66;1771670;80;21914;-53
2022/03/22 12:15:27;;;;;;;7.87;3.20;;;;;;;16.58;25.18;102450.28;1768666;79;21061;-54